sensor_id;sensor_type;location;lat;lon;timestamp;P1;durP1;ratioP1;P2;durP2;ratioP2
72113;SDS011;59989;46.220;19.888;2023-06-04T00:00:28;0.60;;;0.25;;
72113;SDS011;59989;46.220;19.888;2023-06-04T00:03:31;0.85;;;0.30;;
72113;SDS011;59989;46.220;19.888;2023-06-04T00:06:34;1.00;;;0.40;;
72113;SDS011;59989;46.220;19.888;2023-06-04T00:09:38;0.80;;;0.30;;
72113;SDS011;59989;46.220;19.888;2023-06-04T00:12:40;0.70;;;0.30;;
72113;SDS011;59989;46.220;19.888;2023-06-04T00:15:43;0.80;;;0.30;;
72113;SDS011;59989;46.220;19.888;2023-06-04T00:18:45;0.60;;;0.20;;
72113;SDS011;59989;46.220;19.888;2023-06-04T00:21:48;0.65;;;0.28;;
72113;SDS011;59989;46.220;19.888;2023-06-04T00:24:50;0.52;;;0.20;;
72113;SDS011;59989;46.220;19.888;2023-06-04T00:27:53;1.00;;;0.47;;
72113;SDS011;59989;46.220;19.888;2023-06-04T00:30:55;1.05;;;0.50;;
72113;SDS011;59989;46.220;19.888;2023-06-04T00:33:57;2.03;;;0.75;;
72113;SDS011;59989;46.220;19.888;2023-06-04T00:37:00;1.58;;;1.00;;
72113;SDS011;59989;46.220;19.888;2023-06-04T00:40:06;0.80;;;0.30;;
72113;SDS011;59989;46.220;19.888;2023-06-04T00:43:09;0.60;;;0.27;;
72113;SDS011;59989;46.220;19.888;2023-06-04T00:46:12;0.75;;;0.30;;
72113;SDS011;59989;46.220;19.888;2023-06-04T00:49:20;0.88;;;0.30;;
72113;SDS011;59989;46.220;19.888;2023-06-04T00:52:24;0.70;;;0.20;;
72113;SDS011;59989;46.220;19.888;2023-06-04T00:55:27;0.93;;;0.30;;
72113;SDS011;59989;46.220;19.888;2023-06-04T00:58:30;1.23;;;0.40;;
72113;SDS011;59989;46.220;19.888;2023-06-04T01:01:36;0.68;;;0.22;;
72113;SDS011;59989;46.220;19.888;2023-06-04T01:08:10;0.70;;;0.30;;
72113;SDS011;59989;46.220;19.888;2023-06-04T01:11:14;1.00;;;0.40;;
72113;SDS011;59989;46.220;19.888;2023-06-04T01:14:17;0.70;;;0.30;;
72113;SDS011;59989;46.220;19.888;2023-06-04T01:17:23;0.70;;;0.30;;
72113;SDS011;59989;46.220;19.888;2023-06-04T01:20:41;0.73;;;0.30;;
72113;SDS011;59989;46.220;19.888;2023-06-04T01:23:49;0.57;;;0.20;;
72113;SDS011;59989;46.220;19.888;2023-06-04T01:27:03;0.80;;;0.30;;
72113;SDS011;59989;46.220;19.888;2023-06-04T01:30:08;0.60;;;0.30;;
72113;SDS011;59989;46.220;19.888;2023-06-04T01:33:15;0.88;;;0.28;;
72113;SDS011;59989;46.220;19.888;2023-06-04T01:36:19;0.70;;;0.28;;
72113;SDS011;59989;46.220;19.888;2023-06-04T01:39:22;0.70;;;0.30;;
72113;SDS011;59989;46.220;19.888;2023-06-04T01:42:24;0.77;;;0.30;;
72113;SDS011;59989;46.220;19.888;2023-06-04T01:45:27;1.10;;;0.50;;
72113;SDS011;59989;46.220;19.888;2023-06-04T01:48:30;0.60;;;0.20;;
72113;SDS011;59989;46.220;19.888;2023-06-04T01:51:34;1.20;;;0.40;;
72113;SDS011;59989;46.220;19.888;2023-06-04T01:54:37;1.15;;;0.52;;
72113;SDS011;59989;46.220;19.888;2023-06-04T01:57:41;0.80;;;0.30;;
72113;SDS011;59989;46.220;19.888;2023-06-04T02:00:46;0.40;;;0.20;;
72113;SDS011;59989;46.220;19.888;2023-06-04T02:03:51;0.70;;;0.30;;
72113;SDS011;59989;46.220;19.888;2023-06-04T02:06:54;8.18;;;1.33;;
72113;SDS011;59989;46.220;19.888;2023-06-04T02:09:57;0.82;;;0.35;;
72113;SDS011;59989;46.220;19.888;2023-06-04T02:13:00;0.90;;;0.30;;
72113;SDS011;59989;46.220;19.888;2023-06-04T02:16:08;0.50;;;0.20;;
72113;SDS011;59989;46.220;19.888;2023-06-04T02:19:12;0.70;;;0.30;;
72113;SDS011;59989;46.220;19.888;2023-06-04T02:22:16;0.75;;;0.30;;
72113;SDS011;59989;46.220;19.888;2023-06-04T02:25:19;0.55;;;0.20;;
72113;SDS011;59989;46.220;19.888;2023-06-04T02:28:22;0.75;;;0.30;;
72113;SDS011;59989;46.220;19.888;2023-06-04T02:31:25;0.70;;;0.27;;
72113;SDS011;59989;46.220;19.888;2023-06-04T02:34:27;0.85;;;0.28;;
72113;SDS011;59989;46.220;19.888;2023-06-04T02:37:30;0.80;;;0.30;;
72113;SDS011;59989;46.220;19.888;2023-06-04T02:40:32;0.90;;;0.30;;
72113;SDS011;59989;46.220;19.888;2023-06-04T02:43:36;0.70;;;0.20;;
72113;SDS011;59989;46.220;19.888;2023-06-04T02:46:38;1.17;;;0.63;;
72113;SDS011;59989;46.220;19.888;2023-06-04T02:49:41;0.60;;;0.22;;
72113;SDS011;59989;46.220;19.888;2023-06-04T02:52:44;0.82;;;0.35;;
72113;SDS011;59989;46.220;19.888;2023-06-04T02:55:46;0.60;;;0.20;;
72113;SDS011;59989;46.220;19.888;2023-06-04T02:58:50;0.60;;;0.20;;
72113;SDS011;59989;46.220;19.888;2023-06-04T03:01:57;0.50;;;0.20;;
72113;SDS011;59989;46.220;19.888;2023-06-04T03:04:59;0.60;;;0.20;;
72113;SDS011;59989;46.220;19.888;2023-06-04T03:08:04;0.68;;;0.20;;
72113;SDS011;59989;46.220;19.888;2023-06-04T03:11:07;1.80;;;0.40;;
72113;SDS011;59989;46.220;19.888;2023-06-04T03:14:10;0.70;;;0.25;;
72113;SDS011;59989;46.220;19.888;2023-06-04T03:17:12;0.57;;;0.20;;
72113;SDS011;59989;46.220;19.888;2023-06-04T03:20:15;0.57;;;0.20;;
72113;SDS011;59989;46.220;19.888;2023-06-04T03:23:18;0.60;;;0.20;;
72113;SDS011;59989;46.220;19.888;2023-06-04T03:26:21;0.70;;;0.20;;
72113;SDS011;59989;46.220;19.888;2023-06-04T03:29:23;0.80;;;0.30;;
72113;SDS011;59989;46.220;19.888;2023-06-04T03:32:26;0.60;;;0.20;;
72113;SDS011;59989;46.220;19.888;2023-06-04T03:35:29;0.85;;;0.30;;
72113;SDS011;59989;46.220;19.888;2023-06-04T03:38:32;0.80;;;0.30;;
72113;SDS011;59989;46.220;19.888;2023-06-04T03:41:35;0.65;;;0.28;;
72113;SDS011;59989;46.220;19.888;2023-06-04T03:44:37;0.63;;;0.20;;
72113;SDS011;59989;46.220;19.888;2023-06-04T03:47:41;0.50;;;0.20;;
72113;SDS011;59989;46.220;19.888;2023-06-04T03:50:45;0.77;;;0.30;;
72113;SDS011;59989;46.220;19.888;2023-06-04T03:53:49;0.52;;;0.20;;
72113;SDS011;59989;46.220;19.888;2023-06-04T03:56:52;0.60;;;0.20;;
72113;SDS011;59989;46.220;19.888;2023-06-04T03:59:54;0.90;;;0.38;;
72113;SDS011;59989;46.220;19.888;2023-06-04T04:02:57;0.70;;;0.30;;
72113;SDS011;59989;46.220;19.888;2023-06-04T04:06:03;1.05;;;0.40;;
72113;SDS011;59989;46.220;19.888;2023-06-04T04:09:05;0.68;;;0.30;;
72113;SDS011;59989;46.220;19.888;2023-06-04T04:12:09;7.93;;;0.50;;
72113;SDS011;59989;46.220;19.888;2023-06-04T04:15:12;0.80;;;0.30;;
72113;SDS011;59989;46.220;19.888;2023-06-04T04:18:15;0.97;;;0.30;;
72113;SDS011;59989;46.220;19.888;2023-06-04T04:21:19;0.65;;;0.25;;
72113;SDS011;59989;46.220;19.888;2023-06-04T04:27:26;0.77;;;0.30;;
72113;SDS011;59989;46.220;19.888;2023-06-04T04:30:36;0.60;;;0.20;;
72113;SDS011;59989;46.220;19.888;2023-06-04T04:33:40;0.50;;;0.20;;
72113;SDS011;59989;46.220;19.888;2023-06-04T04:36:45;0.70;;;0.30;;
72113;SDS011;59989;46.220;19.888;2023-06-04T04:39:54;0.73;;;0.30;;
72113;SDS011;59989;46.220;19.888;2023-06-04T04:42:59;0.70;;;0.30;;
72113;SDS011;59989;46.220;19.888;2023-06-04T04:46:02;0.60;;;0.20;;
72113;SDS011;59989;46.220;19.888;2023-06-04T04:49:05;0.80;;;0.30;;
72113;SDS011;59989;46.220;19.888;2023-06-04T04:52:08;0.82;;;0.30;;
72113;SDS011;59989;46.220;19.888;2023-06-04T04:55:13;0.70;;;0.30;;
72113;SDS011;59989;46.220;19.888;2023-06-04T04:58:19;0.50;;;0.20;;
72113;SDS011;59989;46.220;19.888;2023-06-04T05:01:22;0.80;;;0.30;;
72113;SDS011;59989;46.220;19.888;2023-06-04T05:04:26;0.97;;;0.40;;
72113;SDS011;59989;46.220;19.888;2023-06-04T05:07:29;0.50;;;0.20;;
72113;SDS011;59989;46.220;19.888;2023-06-04T05:10:32;0.80;;;0.30;;
72113;SDS011;59989;46.220;19.888;2023-06-04T05:13:35;0.70;;;0.30;;
72113;SDS011;59989;46.220;19.888;2023-06-04T05:16:40;0.80;;;0.30;;
72113;SDS011;59989;46.220;19.888;2023-06-04T05:19:45;0.60;;;0.27;;
72113;SDS011;59989;46.220;19.888;2023-06-04T05:22:48;0.55;;;0.20;;
72113;SDS011;59989;46.220;19.888;2023-06-04T05:25:52;0.40;;;0.20;;
72113;SDS011;59989;46.220;19.888;2023-06-04T05:28:55;1.02;;;0.38;;
72113;SDS011;59989;46.220;19.888;2023-06-04T05:32:03;0.90;;;0.30;;
72113;SDS011;59989;46.220;19.888;2023-06-04T05:35:07;0.60;;;0.20;;
72113;SDS011;59989;46.220;19.888;2023-06-04T05:38:10;0.70;;;0.30;;
72113;SDS011;59989;46.220;19.888;2023-06-04T05:41:17;0.70;;;0.30;;
72113;SDS011;59989;46.220;19.888;2023-06-04T05:44:20;0.63;;;0.30;;
72113;SDS011;59989;46.220;19.888;2023-06-04T05:47:23;0.75;;;0.30;;
72113;SDS011;59989;46.220;19.888;2023-06-04T05:50:26;0.80;;;0.30;;
72113;SDS011;59989;46.220;19.888;2023-06-04T05:53:29;1.27;;;0.60;;
72113;SDS011;59989;46.220;19.888;2023-06-04T05:56:32;1.02;;;0.40;;
72113;SDS011;59989;46.220;19.888;2023-06-04T05:59:35;0.88;;;0.32;;
72113;SDS011;59989;46.220;19.888;2023-06-04T06:02:41;0.90;;;0.30;;
72113;SDS011;59989;46.220;19.888;2023-06-04T06:05:56;0.80;;;0.30;;
72113;SDS011;59989;46.220;19.888;2023-06-04T06:09:00;0.90;;;0.30;;
72113;SDS011;59989;46.220;19.888;2023-06-04T06:12:03;1.10;;;0.40;;
72113;SDS011;59989;46.220;19.888;2023-06-04T06:15:09;0.90;;;0.30;;
72113;SDS011;59989;46.220;19.888;2023-06-04T06:18:13;0.85;;;0.30;;
72113;SDS011;59989;46.220;19.888;2023-06-04T06:21:15;0.80;;;0.30;;
72113;SDS011;59989;46.220;19.888;2023-06-04T06:24:18;0.70;;;0.30;;
72113;SDS011;59989;46.220;19.888;2023-06-04T06:27:20;1.10;;;0.40;;
72113;SDS011;59989;46.220;19.888;2023-06-04T06:30:23;1.40;;;0.40;;
72113;SDS011;59989;46.220;19.888;2023-06-04T06:33:26;1.40;;;0.50;;
72113;SDS011;59989;46.220;19.888;2023-06-04T06:36:29;0.73;;;0.30;;
72113;SDS011;59989;46.220;19.888;2023-06-04T06:39:31;0.93;;;0.32;;
72113;SDS011;59989;46.220;19.888;2023-06-04T06:42:34;1.20;;;0.40;;
72113;SDS011;59989;46.220;19.888;2023-06-04T06:45:37;1.13;;;0.40;;
72113;SDS011;59989;46.220;19.888;2023-06-04T06:48:39;1.10;;;0.40;;
72113;SDS011;59989;46.220;19.888;2023-06-04T06:51:45;0.97;;;0.30;;
72113;SDS011;59989;46.220;19.888;2023-06-04T06:54:47;1.05;;;0.40;;
72113;SDS011;59989;46.220;19.888;2023-06-04T06:57:50;1.02;;;0.32;;
72113;SDS011;59989;46.220;19.888;2023-06-04T07:00:53;1.00;;;0.40;;
72113;SDS011;59989;46.220;19.888;2023-06-04T07:03:58;1.67;;;0.60;;
72113;SDS011;59989;46.220;19.888;2023-06-04T07:07:01;2.03;;;0.83;;
72113;SDS011;59989;46.220;19.888;2023-06-04T07:10:04;1.60;;;0.60;;
72113;SDS011;59989;46.220;19.888;2023-06-04T07:13:06;1.10;;;0.40;;
72113;SDS011;59989;46.220;19.888;2023-06-04T07:16:09;4.80;;;0.50;;
72113;SDS011;59989;46.220;19.888;2023-06-04T07:19:12;0.85;;;0.30;;
72113;SDS011;59989;46.220;19.888;2023-06-04T07:22:14;1.10;;;0.40;;
72113;SDS011;59989;46.220;19.888;2023-06-04T07:25:19;1.50;;;0.50;;
72113;SDS011;59989;46.220;19.888;2023-06-04T07:28:22;1.80;;;0.70;;
72113;SDS011;59989;46.220;19.888;2023-06-04T07:31:25;2.22;;;0.85;;
72113;SDS011;59989;46.220;19.888;2023-06-04T07:34:28;1.73;;;0.50;;
72113;SDS011;59989;46.220;19.888;2023-06-04T07:37:30;1.33;;;0.50;;
72113;SDS011;59989;46.220;19.888;2023-06-04T07:40:33;1.33;;;0.52;;
72113;SDS011;59989;46.220;19.888;2023-06-04T07:43:35;1.30;;;0.50;;
72113;SDS011;59989;46.220;19.888;2023-06-04T07:46:38;1.15;;;0.43;;
72113;SDS011;59989;46.220;19.888;2023-06-04T07:49:41;1.60;;;0.65;;
72113;SDS011;59989;46.220;19.888;2023-06-04T07:53:03;1.10;;;0.47;;
72113;SDS011;59989;46.220;19.888;2023-06-04T07:56:05;1.85;;;0.70;;
72113;SDS011;59989;46.220;19.888;2023-06-04T07:59:08;1.30;;;0.50;;
72113;SDS011;59989;46.220;19.888;2023-06-04T08:02:11;1.70;;;0.70;;
72113;SDS011;59989;46.220;19.888;2023-06-04T08:05:14;1.60;;;0.65;;
72113;SDS011;59989;46.220;19.888;2023-06-04T08:08:16;1.13;;;0.43;;
72113;SDS011;59989;46.220;19.888;2023-06-04T08:11:19;4.20;;;0.65;;
72113;SDS011;59989;46.220;19.888;2023-06-04T08:14:21;1.33;;;0.55;;
72113;SDS011;59989;46.220;19.888;2023-06-04T08:17:25;1.52;;;0.50;;
72113;SDS011;59989;46.220;19.888;2023-06-04T08:20:27;2.15;;;0.88;;
72113;SDS011;59989;46.220;19.888;2023-06-04T08:23:30;1.40;;;0.50;;
72113;SDS011;59989;46.220;19.888;2023-06-04T08:26:33;1.40;;;0.60;;
72113;SDS011;59989;46.220;19.888;2023-06-04T08:29:36;1.73;;;0.63;;
72113;SDS011;59989;46.220;19.888;2023-06-04T08:32:39;1.55;;;0.60;;
72113;SDS011;59989;46.220;19.888;2023-06-04T08:35:43;1.45;;;0.50;;
72113;SDS011;59989;46.220;19.888;2023-06-04T08:38:45;1.60;;;0.60;;
72113;SDS011;59989;46.220;19.888;2023-06-04T08:41:59;2.50;;;0.77;;
72113;SDS011;59989;46.220;19.888;2023-06-04T08:45:07;1.48;;;0.50;;
72113;SDS011;59989;46.220;19.888;2023-06-04T08:48:13;1.15;;;0.40;;
72113;SDS011;59989;46.220;19.888;2023-06-04T08:51:17;1.90;;;0.60;;
72113;SDS011;59989;46.220;19.888;2023-06-04T08:54:20;1.47;;;0.50;;
72113;SDS011;59989;46.220;19.888;2023-06-04T08:57:23;1.63;;;0.47;;
72113;SDS011;59989;46.220;19.888;2023-06-04T09:00:25;1.65;;;0.60;;
72113;SDS011;59989;46.220;19.888;2023-06-04T09:03:28;1.30;;;0.50;;
72113;SDS011;59989;46.220;19.888;2023-06-04T09:06:34;1.42;;;0.50;;
72113;SDS011;59989;46.220;19.888;2023-06-04T09:09:40;1.20;;;0.40;;
72113;SDS011;59989;46.220;19.888;2023-06-04T09:12:46;1.55;;;0.55;;
72113;SDS011;59989;46.220;19.888;2023-06-04T09:16:02;1.52;;;0.57;;
72113;SDS011;59989;46.220;19.888;2023-06-04T09:19:05;1.73;;;0.60;;
72113;SDS011;59989;46.220;19.888;2023-06-04T09:22:08;1.50;;;0.50;;
72113;SDS011;59989;46.220;19.888;2023-06-04T09:25:19;1.40;;;0.50;;
72113;SDS011;59989;46.220;19.888;2023-06-04T09:28:29;2.38;;;0.82;;
72113;SDS011;59989;46.220;19.888;2023-06-04T09:31:32;1.70;;;0.70;;
72113;SDS011;59989;46.220;19.888;2023-06-04T09:34:42;2.05;;;0.70;;
72113;SDS011;59989;46.220;19.888;2023-06-04T09:37:56;1.88;;;0.70;;
72113;SDS011;59989;46.220;19.888;2023-06-04T09:41:01;1.93;;;0.60;;
72113;SDS011;59989;46.220;19.888;2023-06-04T09:44:08;1.67;;;0.60;;
72113;SDS011;59989;46.220;19.888;2023-06-04T09:47:12;1.50;;;0.50;;
72113;SDS011;59989;46.220;19.888;2023-06-04T09:50:15;1.65;;;0.60;;
72113;SDS011;59989;46.220;19.888;2023-06-04T09:53:29;1.80;;;0.60;;
72113;SDS011;59989;46.220;19.888;2023-06-04T09:56:38;1.30;;;0.50;;
72113;SDS011;59989;46.220;19.888;2023-06-04T09:59:43;1.85;;;0.65;;
72113;SDS011;59989;46.220;19.888;2023-06-04T10:02:50;1.55;;;0.60;;
72113;SDS011;59989;46.220;19.888;2023-06-04T10:05:59;1.80;;;0.65;;
72113;SDS011;59989;46.220;19.888;2023-06-04T10:09:07;2.30;;;0.90;;
72113;SDS011;59989;46.220;19.888;2023-06-04T10:12:14;1.80;;;0.60;;
72113;SDS011;59989;46.220;19.888;2023-06-04T10:15:18;1.77;;;0.60;;
72113;SDS011;59989;46.220;19.888;2023-06-04T10:18:21;1.50;;;0.50;;
72113;SDS011;59989;46.220;19.888;2023-06-04T10:21:24;2.10;;;0.80;;
72113;SDS011;59989;46.220;19.888;2023-06-04T10:24:28;1.90;;;0.70;;
72113;SDS011;59989;46.220;19.888;2023-06-04T10:27:31;1.70;;;0.60;;
72113;SDS011;59989;46.220;19.888;2023-06-04T10:30:34;1.50;;;0.50;;
72113;SDS011;59989;46.220;19.888;2023-06-04T10:33:36;2.25;;;0.85;;
72113;SDS011;59989;46.220;19.888;2023-06-04T10:36:43;1.90;;;0.77;;
72113;SDS011;59989;46.220;19.888;2023-06-04T10:39:53;1.70;;;0.60;;
72113;SDS011;59989;46.220;19.888;2023-06-04T10:42:57;1.70;;;0.67;;
72113;SDS011;59989;46.220;19.888;2023-06-04T10:46:14;1.88;;;0.70;;
72113;SDS011;59989;46.220;19.888;2023-06-04T10:49:25;1.80;;;0.70;;
72113;SDS011;59989;46.220;19.888;2023-06-04T10:52:29;1.63;;;0.60;;
72113;SDS011;59989;46.220;19.888;2023-06-04T10:55:32;1.70;;;0.60;;
72113;SDS011;59989;46.220;19.888;2023-06-04T10:58:46;1.80;;;0.67;;
72113;SDS011;59989;46.220;19.888;2023-06-04T11:01:48;2.10;;;0.80;;
72113;SDS011;59989;46.220;19.888;2023-06-04T11:05:00;2.00;;;0.80;;
72113;SDS011;59989;46.220;19.888;2023-06-04T11:08:12;3.50;;;0.80;;
72113;SDS011;59989;46.220;19.888;2023-06-04T11:11:16;1.60;;;0.60;;
72113;SDS011;59989;46.220;19.888;2023-06-04T11:14:19;2.87;;;0.70;;
72113;SDS011;59989;46.220;19.888;2023-06-04T11:17:22;2.00;;;0.70;;
72113;SDS011;59989;46.220;19.888;2023-06-04T11:20:25;2.30;;;0.88;;
72113;SDS011;59989;46.220;19.888;2023-06-04T11:23:28;1.77;;;0.68;;
72113;SDS011;59989;46.220;19.888;2023-06-04T11:26:31;4.07;;;1.10;;
72113;SDS011;59989;46.220;19.888;2023-06-04T11:29:35;2.07;;;0.80;;
72113;SDS011;59989;46.220;19.888;2023-06-04T11:32:38;2.00;;;0.70;;
72113;SDS011;59989;46.220;19.888;2023-06-04T11:35:41;2.03;;;0.80;;
72113;SDS011;59989;46.220;19.888;2023-06-04T11:38:53;2.50;;;0.90;;
72113;SDS011;59989;46.220;19.888;2023-06-04T11:42:06;1.90;;;0.70;;
72113;SDS011;59989;46.220;19.888;2023-06-04T11:45:10;2.70;;;1.10;;
72113;SDS011;59989;46.220;19.888;2023-06-04T11:48:14;2.35;;;0.80;;
72113;SDS011;59989;46.220;19.888;2023-06-04T11:51:17;2.50;;;1.00;;
72113;SDS011;59989;46.220;19.888;2023-06-04T11:54:21;2.40;;;1.00;;
72113;SDS011;59989;46.220;19.888;2023-06-04T11:57:24;2.53;;;1.08;;
72113;SDS011;59989;46.220;19.888;2023-06-04T12:00:27;3.13;;;1.17;;
72113;SDS011;59989;46.220;19.888;2023-06-04T12:03:38;2.22;;;0.80;;
72113;SDS011;59989;46.220;19.888;2023-06-04T12:06:54;2.15;;;0.80;;
72113;SDS011;59989;46.220;19.888;2023-06-04T12:10:05;2.03;;;0.70;;
72113;SDS011;59989;46.220;19.888;2023-06-04T12:13:09;2.60;;;1.00;;
72113;SDS011;59989;46.220;19.888;2023-06-04T12:16:14;2.50;;;0.90;;
72113;SDS011;59989;46.220;19.888;2023-06-04T12:19:16;2.53;;;1.02;;
72113;SDS011;59989;46.220;19.888;2023-06-04T12:22:19;2.63;;;1.00;;
72113;SDS011;59989;46.220;19.888;2023-06-04T12:25:25;2.00;;;0.75;;
72113;SDS011;59989;46.220;19.888;2023-06-04T12:28:28;2.85;;;1.13;;
72113;SDS011;59989;46.220;19.888;2023-06-04T12:31:30;2.53;;;1.00;;
72113;SDS011;59989;46.220;19.888;2023-06-04T12:34:37;2.70;;;1.08;;
72113;SDS011;59989;46.220;19.888;2023-06-04T12:37:40;3.28;;;1.27;;
72113;SDS011;59989;46.220;19.888;2023-06-04T12:40:43;2.90;;;1.10;;
72113;SDS011;59989;46.220;19.888;2023-06-04T12:43:45;3.60;;;1.10;;
72113;SDS011;59989;46.220;19.888;2023-06-04T12:46:48;3.57;;;1.30;;
72113;SDS011;59989;46.220;19.888;2023-06-04T12:49:50;7.10;;;1.55;;
72113;SDS011;59989;46.220;19.888;2023-06-04T12:52:54;3.47;;;1.50;;
72113;SDS011;59989;46.220;19.888;2023-06-04T12:55:57;2.10;;;0.80;;
72113;SDS011;59989;46.220;19.888;2023-06-04T12:59:00;2.35;;;0.90;;
72113;SDS011;59989;46.220;19.888;2023-06-04T13:02:02;2.03;;;0.73;;
72113;SDS011;59989;46.220;19.888;2023-06-04T13:05:05;2.42;;;1.00;;
72113;SDS011;59989;46.220;19.888;2023-06-04T13:08:08;2.22;;;0.82;;
72113;SDS011;59989;46.220;19.888;2023-06-04T13:11:11;1.60;;;0.60;;
72113;SDS011;59989;46.220;19.888;2023-06-04T13:14:14;2.20;;;0.85;;
72113;SDS011;59989;46.220;19.888;2023-06-04T13:17:16;2.23;;;0.90;;
72113;SDS011;59989;46.220;19.888;2023-06-04T13:20:24;3.10;;;1.25;;
72113;SDS011;59989;46.220;19.888;2023-06-04T13:23:26;2.65;;;1.00;;
72113;SDS011;59989;46.220;19.888;2023-06-04T13:26:49;2.03;;;0.80;;
72113;SDS011;59989;46.220;19.888;2023-06-04T13:29:52;2.40;;;0.90;;
72113;SDS011;59989;46.220;19.888;2023-06-04T13:32:54;2.63;;;1.00;;
72113;SDS011;59989;46.220;19.888;2023-06-04T13:35:57;2.95;;;1.15;;
72113;SDS011;59989;46.220;19.888;2023-06-04T13:38:59;3.38;;;1.35;;
72113;SDS011;59989;46.220;19.888;2023-06-04T13:42:02;3.63;;;1.52;;
72113;SDS011;59989;46.220;19.888;2023-06-04T13:45:05;3.88;;;1.63;;
72113;SDS011;59989;46.220;19.888;2023-06-04T13:48:08;4.20;;;1.90;;
72113;SDS011;59989;46.220;19.888;2023-06-04T13:51:10;4.40;;;1.88;;
72113;SDS011;59989;46.220;19.888;2023-06-04T13:54:13;4.07;;;1.70;;
72113;SDS011;59989;46.220;19.888;2023-06-04T13:57:16;3.97;;;1.70;;
72113;SDS011;59989;46.220;19.888;2023-06-04T14:00:18;4.90;;;2.15;;
72113;SDS011;59989;46.220;19.888;2023-06-04T14:03:22;2.80;;;1.10;;
72113;SDS011;59989;46.220;19.888;2023-06-04T14:06:25;2.20;;;0.82;;
72113;SDS011;59989;46.220;19.888;2023-06-04T14:09:27;2.40;;;0.90;;
72113;SDS011;59989;46.220;19.888;2023-06-04T14:12:30;2.00;;;0.70;;
72113;SDS011;59989;46.220;19.888;2023-06-04T14:15:32;2.08;;;0.75;;
72113;SDS011;59989;46.220;19.888;2023-06-04T14:18:35;2.60;;;0.90;;
72113;SDS011;59989;46.220;19.888;2023-06-04T14:21:37;4.15;;;1.70;;
72113;SDS011;59989;46.220;19.888;2023-06-04T14:24:40;4.32;;;1.95;;
72113;SDS011;59989;46.220;19.888;2023-06-04T14:27:43;3.60;;;1.52;;
72113;SDS011;59989;46.220;19.888;2023-06-04T14:30:46;4.45;;;1.92;;
72113;SDS011;59989;46.220;19.888;2023-06-04T14:33:49;4.20;;;1.90;;
72113;SDS011;59989;46.220;19.888;2023-06-04T14:36:51;4.05;;;1.73;;
72113;SDS011;59989;46.220;19.888;2023-06-04T14:39:54;4.13;;;1.77;;
72113;SDS011;59989;46.220;19.888;2023-06-04T14:42:56;3.78;;;1.60;;
72113;SDS011;59989;46.220;19.888;2023-06-04T14:45:59;4.28;;;1.85;;
72113;SDS011;59989;46.220;19.888;2023-06-04T14:49:02;4.20;;;1.70;;
72113;SDS011;59989;46.220;19.888;2023-06-04T14:52:04;4.22;;;1.85;;
72113;SDS011;59989;46.220;19.888;2023-06-04T14:55:07;4.38;;;1.90;;
72113;SDS011;59989;46.220;19.888;2023-06-04T14:58:10;4.18;;;1.80;;
72113;SDS011;59989;46.220;19.888;2023-06-04T15:01:13;4.85;;;2.25;;
72113;SDS011;59989;46.220;19.888;2023-06-04T15:04:16;4.20;;;1.80;;
72113;SDS011;59989;46.220;19.888;2023-06-04T15:07:18;4.10;;;1.80;;
72113;SDS011;59989;46.220;19.888;2023-06-04T15:10:21;4.72;;;1.90;;
72113;SDS011;59989;46.220;19.888;2023-06-04T15:13:24;4.38;;;1.90;;
72113;SDS011;59989;46.220;19.888;2023-06-04T15:16:26;4.80;;;2.00;;
72113;SDS011;59989;46.220;19.888;2023-06-04T15:19:29;4.50;;;2.20;;
72113;SDS011;59989;46.220;19.888;2023-06-04T15:22:31;3.65;;;1.60;;
72113;SDS011;59989;46.220;19.888;2023-06-04T15:25:34;4.20;;;1.80;;
72113;SDS011;59989;46.220;19.888;2023-06-04T15:28:37;3.97;;;1.63;;
72113;SDS011;59989;46.220;19.888;2023-06-04T15:31:39;4.40;;;1.73;;
72113;SDS011;59989;46.220;19.888;2023-06-04T15:34:42;3.40;;;1.40;;
72113;SDS011;59989;46.220;19.888;2023-06-04T15:37:44;3.72;;;1.60;;
72113;SDS011;59989;46.220;19.888;2023-06-04T15:40:47;4.30;;;1.90;;
72113;SDS011;59989;46.220;19.888;2023-06-04T15:43:50;4.22;;;1.90;;
72113;SDS011;59989;46.220;19.888;2023-06-04T15:46:54;4.30;;;1.80;;
72113;SDS011;59989;46.220;19.888;2023-06-04T15:49:56;4.23;;;1.83;;
72113;SDS011;59989;46.220;19.888;2023-06-04T15:52:59;3.60;;;1.50;;
72113;SDS011;59989;46.220;19.888;2023-06-04T15:56:02;3.70;;;1.55;;
72113;SDS011;59989;46.220;19.888;2023-06-04T15:59:04;3.50;;;1.40;;
72113;SDS011;59989;46.220;19.888;2023-06-04T16:02:07;4.03;;;1.80;;
72113;SDS011;59989;46.220;19.888;2023-06-04T16:05:10;3.57;;;1.50;;
72113;SDS011;59989;46.220;19.888;2023-06-04T16:08:12;3.58;;;1.50;;
72113;SDS011;59989;46.220;19.888;2023-06-04T16:11:15;3.53;;;1.40;;
72113;SDS011;59989;46.220;19.888;2023-06-04T16:14:18;3.40;;;1.38;;
72113;SDS011;59989;46.220;19.888;2023-06-04T16:17:20;4.35;;;1.60;;
72113;SDS011;59989;46.220;19.888;2023-06-04T16:20:23;3.47;;;1.37;;
72113;SDS011;59989;46.220;19.888;2023-06-04T16:23:26;3.95;;;1.67;;
72113;SDS011;59989;46.220;19.888;2023-06-04T16:26:28;3.28;;;1.25;;
72113;SDS011;59989;46.220;19.888;2023-06-04T16:29:31;3.10;;;1.20;;
72113;SDS011;59989;46.220;19.888;2023-06-04T16:32:34;2.88;;;1.23;;
72113;SDS011;59989;46.220;19.888;2023-06-04T16:35:36;2.60;;;1.10;;
72113;SDS011;59989;46.220;19.888;2023-06-04T16:38:39;2.70;;;1.10;;
72113;SDS011;59989;46.220;19.888;2023-06-04T16:41:41;3.35;;;1.33;;
72113;SDS011;59989;46.220;19.888;2023-06-04T16:44:44;3.08;;;1.15;;
72113;SDS011;59989;46.220;19.888;2023-06-04T16:47:48;2.83;;;1.20;;
72113;SDS011;59989;46.220;19.888;2023-06-04T16:50:51;2.53;;;1.00;;
72113;SDS011;59989;46.220;19.888;2023-06-04T16:53:55;2.53;;;1.02;;
72113;SDS011;59989;46.220;19.888;2023-06-04T16:56:58;2.38;;;0.90;;
72113;SDS011;59989;46.220;19.888;2023-06-04T17:00:01;2.90;;;1.10;;
72113;SDS011;59989;46.220;19.888;2023-06-04T17:03:23;1.90;;;0.70;;
72113;SDS011;59989;46.220;19.888;2023-06-04T17:06:26;1.97;;;0.67;;
72113;SDS011;59989;46.220;19.888;2023-06-04T17:09:29;3.20;;;0.80;;
72113;SDS011;59989;46.220;19.888;2023-06-04T17:12:32;1.60;;;0.60;;
72113;SDS011;59989;46.220;19.888;2023-06-04T17:15:38;1.98;;;0.80;;
72113;SDS011;59989;46.220;19.888;2023-06-04T17:18:40;1.70;;;0.60;;
72113;SDS011;59989;46.220;19.888;2023-06-04T17:21:43;1.60;;;0.60;;
72113;SDS011;59989;46.220;19.888;2023-06-04T17:24:45;1.98;;;0.60;;
72113;SDS011;59989;46.220;19.888;2023-06-04T17:27:48;1.58;;;0.55;;
72113;SDS011;59989;46.220;19.888;2023-06-04T17:30:53;1.52;;;0.55;;
72113;SDS011;59989;46.220;19.888;2023-06-04T17:33:55;6.38;;;1.20;;
72113;SDS011;59989;46.220;19.888;2023-06-04T17:36:58;1.53;;;0.50;;
72113;SDS011;59989;46.220;19.888;2023-06-04T17:40:02;1.83;;;0.50;;
72113;SDS011;59989;46.220;19.888;2023-06-04T17:43:05;1.83;;;0.55;;
72113;SDS011;59989;46.220;19.888;2023-06-04T17:46:08;1.30;;;0.40;;
72113;SDS011;59989;46.220;19.888;2023-06-04T17:49:11;2.20;;;0.88;;
72113;SDS011;59989;46.220;19.888;2023-06-04T17:52:15;1.43;;;0.50;;
72113;SDS011;59989;46.220;19.888;2023-06-04T17:55:18;1.08;;;0.40;;
72113;SDS011;59989;46.220;19.888;2023-06-04T17:58:20;1.23;;;0.50;;
72113;SDS011;59989;46.220;19.888;2023-06-04T18:01:24;1.15;;;0.40;;
72113;SDS011;59989;46.220;19.888;2023-06-04T18:04:26;5.50;;;0.80;;
72113;SDS011;59989;46.220;19.888;2023-06-04T18:07:29;0.90;;;0.33;;
72113;SDS011;59989;46.220;19.888;2023-06-04T18:10:32;1.30;;;0.50;;
72113;SDS011;59989;46.220;19.888;2023-06-04T18:13:35;1.20;;;0.40;;
72113;SDS011;59989;46.220;19.888;2023-06-04T18:16:38;1.95;;;0.90;;